createdAt,value
2023-05-22T00:01:06.658Z,18.80
2023-05-22T00:03:33.729Z,18.23
2023-05-22T00:06:00.356Z,19.08
2023-05-22T00:08:29.543Z,20.53
2023-05-22T00:10:56.808Z,20.25
2023-05-22T00:13:23.386Z,19.10
2023-05-22T00:15:50.106Z,19.75
2023-05-22T00:18:16.820Z,20.33
2023-05-22T00:20:46.352Z,20.30
2023-05-22T00:23:15.597Z,21.08
2023-05-22T00:25:42.401Z,21.23
2023-05-22T00:28:08.963Z,20.73
2023-05-22T00:30:37.158Z,20.25
2023-05-22T00:33:03.977Z,20.53
2023-05-22T00:35:31.013Z,21.33
2023-05-22T00:37:57.633Z,20.13
2023-05-22T00:40:24.204Z,19.73
2023-05-22T00:42:50.679Z,19.77
2023-05-22T00:45:17.363Z,20.83
2023-05-22T00:47:43.971Z,21.95
2023-05-22T00:50:11.751Z,20.25
2023-05-22T00:52:41.232Z,21.77
2023-05-22T00:55:09.055Z,21.45
2023-05-22T00:57:38.233Z,20.77
2023-05-22T01:00:06.252Z,20.10
2023-05-22T01:02:33.212Z,22.80
2023-05-22T01:05:00.017Z,20.85
2023-05-22T01:07:26.546Z,21.35
2023-05-22T01:09:53.038Z,22.13
2023-05-22T01:12:43.231Z,20.88
2023-05-22T01:15:41.227Z,22.00
2023-05-22T01:18:19.684Z,22.60
2023-05-22T01:21:06.323Z,21.88
2023-05-22T01:24:00.880Z,22.53
2023-05-22T01:26:36.222Z,21.92
2023-05-22T01:29:14.377Z,23.00
2023-05-22T01:31:43.015Z,21.58
2023-05-22T01:34:11.676Z,22.92
2023-05-22T01:36:39.066Z,22.23
2023-05-22T01:39:06.764Z,22.92
2023-05-22T01:41:34.727Z,22.42
2023-05-22T01:44:02.258Z,23.45
2023-05-22T01:46:30.223Z,24.17
2023-05-22T01:48:57.524Z,23.40
2023-05-22T01:51:46.848Z,21.85
2023-05-22T01:54:44.028Z,23.00
2023-05-22T01:57:22.135Z,22.70
2023-05-22T01:59:59.551Z,21.67
2023-05-22T02:02:27.870Z,23.13
2023-05-22T02:05:00.681Z,22.17
2023-05-22T02:07:28.825Z,22.35
2023-05-22T02:09:56.831Z,23.33
2023-05-22T02:12:24.529Z,23.90
2023-05-22T02:14:52.245Z,24.27
2023-05-22T02:17:18.918Z,21.80
2023-05-22T02:19:45.521Z,23.90
2023-05-22T02:22:15.197Z,23.70
2023-05-22T02:24:50.941Z,23.20
2023-05-22T02:27:17.474Z,22.63
2023-05-22T02:29:43.994Z,23.77
2023-05-22T02:32:10.730Z,23.27
2023-05-22T02:34:37.982Z,22.58
2023-05-22T02:37:04.841Z,23.13
2023-05-22T02:39:31.359Z,22.97
2023-05-22T02:41:57.870Z,23.83
2023-05-22T02:44:24.366Z,23.15
2023-05-22T02:46:50.938Z,23.55
2023-05-22T02:49:17.467Z,23.02
2023-05-22T02:51:47.520Z,23.60
2023-05-22T02:54:15.810Z,20.75
2023-05-22T02:56:43.267Z,21.70
2023-05-22T02:59:10.071Z,22.25
2023-05-22T03:01:36.780Z,22.27
2023-05-22T03:04:03.381Z,21.47
2023-05-22T03:06:30.542Z,21.27
2023-05-22T03:08:57.067Z,22.42
2023-05-22T03:11:23.630Z,21.25
2023-05-22T03:13:50.132Z,20.75
2023-05-22T03:16:16.768Z,21.97
2023-05-22T03:18:43.299Z,18.92
2023-05-22T03:21:10.008Z,19.77
2023-05-22T03:23:36.501Z,21.60
2023-05-22T03:26:03.060Z,22.65
2023-05-22T03:28:29.578Z,21.60
2023-05-22T03:30:56.099Z,23.20
2023-05-22T03:33:22.709Z,22.13
2023-05-22T03:35:50.102Z,22.35
2023-05-22T03:38:16.603Z,22.88
2023-05-22T03:40:43.067Z,21.40
2023-05-22T03:43:09.547Z,21.45
2023-05-22T03:45:36.130Z,20.90
2023-05-22T03:48:02.802Z,20.95
2023-05-22T03:50:29.354Z,22.08
2023-05-22T03:52:55.882Z,20.60
2023-05-22T03:55:22.364Z,21.48
2023-05-22T03:57:48.828Z,22.00
2023-05-22T04:00:17.098Z,22.23
2023-05-22T04:02:44.993Z,22.10
2023-05-22T04:05:12.038Z,23.33
2023-05-22T04:07:38.646Z,22.15
2023-05-22T04:10:06.383Z,21.17
2023-05-22T04:12:33.007Z,22.45
2023-05-22T04:14:59.659Z,21.60
2023-05-22T04:17:32.192Z,20.70
2023-05-22T04:19:59.756Z,21.63
2023-05-22T04:22:30.898Z,20.67
2023-05-22T04:24:57.619Z,20.70
2023-05-22T04:27:24.867Z,20.13
2023-05-22T04:29:51.369Z,20.03
2023-05-22T04:32:21.671Z,17.83
2023-05-22T04:34:51.048Z,18.85
2023-05-22T04:37:20.694Z,19.27
2023-05-22T04:39:47.404Z,19.02
2023-05-22T04:42:14.462Z,18.63
2023-05-22T04:44:41.898Z,19.75
2023-05-22T04:47:14.314Z,20.35
2023-05-22T04:49:42.445Z,19.35
2023-05-22T04:52:11.571Z,20.77
2023-05-22T04:54:43.309Z,19.93
2023-05-22T04:57:09.996Z,20.77
2023-05-22T04:59:40.176Z,20.17
2023-05-22T05:02:07.124Z,21.60
2023-05-22T05:04:33.964Z,20.13
2023-05-22T05:07:00.561Z,21.57
2023-05-22T05:09:27.070Z,22.33
2023-05-22T05:11:55.003Z,22.55
2023-05-22T05:14:21.578Z,20.88
2023-05-22T05:16:48.143Z,22.05
2023-05-22T05:19:15.573Z,22.93
2023-05-22T05:21:42.176Z,23.15
2023-05-22T05:24:08.785Z,24.58
2023-05-22T05:26:35.340Z,22.95
2023-05-22T05:29:01.859Z,23.95
2023-05-22T05:31:28.718Z,25.03
2023-05-22T05:33:58.152Z,25.55
2023-05-22T05:36:25.186Z,25.25
2023-05-22T05:38:51.759Z,25.38
2023-05-22T05:41:19.134Z,26.33
2023-05-22T05:43:45.826Z,24.90
2023-05-22T05:46:13.189Z,26.02
2023-05-22T05:48:39.844Z,25.42
2023-05-22T05:51:06.715Z,26.13
2023-05-22T05:53:33.250Z,24.77
2023-05-22T05:55:59.841Z,25.27
2023-05-22T05:58:26.328Z,23.67
2023-05-22T06:00:52.902Z,24.30
2023-05-22T06:03:19.523Z,25.42
2023-05-22T06:05:46.231Z,25.83
2023-05-22T06:08:13.614Z,22.93
2023-05-22T06:10:40.422Z,24.77
2023-05-22T06:13:07.264Z,24.38
2023-05-22T06:15:34.319Z,24.60
2023-05-22T06:18:02.463Z,22.90
2023-05-22T06:20:29.118Z,24.10
2023-05-22T06:22:56.048Z,23.02
2023-05-22T06:25:23.777Z,23.95
2023-05-22T06:27:50.292Z,22.77
2023-05-22T06:30:31.993Z,24.13
2023-05-22T06:33:06.140Z,24.93
2023-05-22T06:35:32.696Z,24.48
2023-05-22T06:37:59.323Z,23.48
2023-05-22T06:40:25.948Z,24.00
2023-05-22T06:42:52.997Z,25.63
2023-05-22T06:45:20.041Z,23.70
2023-05-22T06:47:46.852Z,24.63
2023-05-22T06:50:13.428Z,23.65
2023-05-22T06:52:39.926Z,24.42
2023-05-22T06:55:07.379Z,24.88
2023-05-22T06:57:34.665Z,25.63
2023-05-22T07:00:01.293Z,24.13
2023-05-22T07:02:27.867Z,24.77
2023-05-22T07:04:54.490Z,23.45
2023-05-22T07:07:21.233Z,24.80
2023-05-22T07:09:47.901Z,24.17
2023-05-22T07:12:14.586Z,25.10
2023-05-22T07:14:41.133Z,25.80
2023-05-22T07:17:08.001Z,24.67
2023-05-22T07:19:35.756Z,23.05
2023-05-22T07:22:02.393Z,23.90
2023-05-22T07:24:29.053Z,23.40
2023-05-22T07:26:55.655Z,22.13
2023-05-22T07:29:23.183Z,22.73
2023-05-22T07:31:50.149Z,23.05
2023-05-22T07:34:16.804Z,23.30
2023-05-22T07:36:43.393Z,24.40
2023-05-22T07:39:09.905Z,24.50
2023-05-22T07:41:36.717Z,22.17
2023-05-22T07:44:03.403Z,22.48
2023-05-22T07:46:29.996Z,21.97
2023-05-22T07:48:56.827Z,22.38
2023-05-22T07:51:23.336Z,22.65
2023-05-22T07:53:49.852Z,22.70
2023-05-22T07:56:17.612Z,22.25
2023-05-22T07:58:44.358Z,22.73
2023-05-22T08:01:11.145Z,21.50
2023-05-22T08:03:37.907Z,21.75
2023-05-22T08:06:04.824Z,22.65
2023-05-22T08:08:32.183Z,20.88
2023-05-22T08:13:28.195Z,21.88
2023-05-22T08:16:00.149Z,21.15
2023-05-22T08:18:29.168Z,20.17
2023-05-22T08:20:56.257Z,21.75
2023-05-22T08:23:22.994Z,20.37
2023-05-22T08:25:50.290Z,22.20
2023-05-22T08:28:16.856Z,21.02
2023-05-22T08:30:43.462Z,20.92
2023-05-22T08:33:10.074Z,21.30
2023-05-22T08:35:36.760Z,19.07
2023-05-22T08:38:03.318Z,20.80
2023-05-22T08:40:36.771Z,19.02
2023-05-22T08:43:06.156Z,19.58
2023-05-22T08:45:36.974Z,19.60
2023-05-22T08:48:05.912Z,19.93
2023-05-22T08:50:34.702Z,20.02
2023-05-22T08:53:04.770Z,19.92
2023-05-22T08:55:31.402Z,20.65
2023-05-22T08:57:59.561Z,18.70
2023-05-22T09:00:26.184Z,19.03
2023-05-22T09:02:53.479Z,18.77
2023-05-22T09:05:20.197Z,18.95
2023-05-22T09:07:48.817Z,18.15
2023-05-22T09:10:15.390Z,18.40
2023-05-22T09:13:00.822Z,18.27
2023-05-22T09:15:30.554Z,18.00
2023-05-22T09:17:57.189Z,19.63
2023-05-22T09:20:23.827Z,21.08
2023-05-22T09:22:50.380Z,20.85
2023-05-22T09:25:21.337Z,18.97
2023-05-22T09:27:48.833Z,20.10
2023-05-22T09:30:19.075Z,17.58
2023-05-22T09:32:48.375Z,19.95
2023-05-22T09:35:15.241Z,20.52
2023-05-22T09:37:42.059Z,19.87
2023-05-22T09:40:12.061Z,19.38
2023-05-22T09:42:38.590Z,17.42
2023-05-22T09:45:07.159Z,17.90
2023-05-22T09:47:34.889Z,17.48
2023-05-22T09:50:04.559Z,19.40
2023-05-22T09:52:35.753Z,20.58
2023-05-22T09:55:04.780Z,18.50
2023-05-22T09:57:42.856Z,16.83
2023-05-22T10:00:13.331Z,17.98
2023-05-22T10:02:44.562Z,17.53
2023-05-22T10:05:12.145Z,16.20
2023-05-22T10:08:04.881Z,16.95
2023-05-22T10:10:33.065Z,16.20
2023-05-22T10:13:06.501Z,15.80
2023-05-22T10:15:33.139Z,16.13
2023-05-22T10:18:00.717Z,16.08
2023-05-22T10:20:29.714Z,15.25
2023-05-22T10:22:56.941Z,15.30
2023-05-22T10:25:23.636Z,18.65
2023-05-22T10:27:53.619Z,17.70
2023-05-22T10:30:40.862Z,15.40
2023-05-22T10:33:19.040Z,17.90
2023-05-22T10:36:08.675Z,17.23
2023-05-22T10:39:04.989Z,18.92
2023-05-22T10:41:31.938Z,19.07
2023-05-22T10:43:58.536Z,20.95
2023-05-22T10:46:25.552Z,20.75
2023-05-22T10:48:55.082Z,19.45
2023-05-22T10:51:23.116Z,18.38
2023-05-22T10:53:57.936Z,20.27
2023-05-22T10:56:32.146Z,19.95
2023-05-22T10:59:05.321Z,20.77
2023-05-22T11:01:37.487Z,20.75
2023-05-22T11:04:04.113Z,21.25
2023-05-22T11:06:34.052Z,21.53
2023-05-22T11:09:16.309Z,19.63
2023-05-22T11:11:42.877Z,19.35
2023-05-22T11:14:11.887Z,19.50
2023-05-22T11:16:39.788Z,19.23
2023-05-22T11:19:22.145Z,21.07
2023-05-22T11:21:49.656Z,22.02
2023-05-22T11:24:18.091Z,21.80
2023-05-22T11:26:52.484Z,21.70
2023-05-22T11:29:19.029Z,19.63
2023-05-22T11:31:46.348Z,20.67
2023-05-22T11:34:13.026Z,21.70
2023-05-22T11:36:40.316Z,22.67
2023-05-22T11:39:07.261Z,20.42
2023-05-22T11:41:34.346Z,20.08
2023-05-22T11:44:01.603Z,17.83
2023-05-22T11:46:30.334Z,21.73
2023-05-22T11:48:57.077Z,21.50
2023-05-22T11:51:23.740Z,20.90
2023-05-22T11:53:50.387Z,19.48
2023-05-22T11:56:21.568Z,21.77
2023-05-22T11:58:51.882Z,19.77
2023-05-22T12:01:18.469Z,20.05
2023-05-22T12:03:45.108Z,18.55
2023-05-22T12:06:11.991Z,20.23
2023-05-22T12:08:39.292Z,19.13
2023-05-22T12:11:07.122Z,18.20
2023-05-22T12:13:33.635Z,18.75
2023-05-22T12:16:00.980Z,21.58
2023-05-22T12:18:35.374Z,19.02
2023-05-22T12:21:01.948Z,18.23
2023-05-22T12:23:30.058Z,18.33
2023-05-22T12:26:09.013Z,17.98
2023-05-22T12:28:35.640Z,15.60
2023-05-22T12:31:02.139Z,16.00
2023-05-22T12:33:29.936Z,17.27
2023-05-22T12:35:58.596Z,18.00
2023-05-22T12:38:31.701Z,17.38
2023-05-22T12:41:00.199Z,17.10
2023-05-22T12:43:27.246Z,16.48
2023-05-22T12:45:54.100Z,16.10
2023-05-22T12:48:20.690Z,15.18
2023-05-22T12:50:47.341Z,15.13
2023-05-22T12:53:14.000Z,14.10
2023-05-22T12:55:40.980Z,15.10
2023-05-22T12:58:07.648Z,15.33
2023-05-22T13:00:34.744Z,15.93
2023-05-22T13:03:01.520Z,14.43
2023-05-22T13:05:28.181Z,13.75
2023-05-22T13:07:54.683Z,14.60
2023-05-22T13:10:21.262Z,14.57
2023-05-22T13:12:51.027Z,16.15
2023-05-22T13:15:20.713Z,15.13
2023-05-22T13:17:47.296Z,17.10
2023-05-22T13:20:13.972Z,14.63
2023-05-22T13:22:44.640Z,15.50
2023-05-22T13:25:13.297Z,15.13
2023-05-22T13:27:39.843Z,12.68
2023-05-22T13:30:06.973Z,11.65
2023-05-22T13:32:34.173Z,11.68
2023-05-22T13:35:00.797Z,11.07
2023-05-22T13:37:27.426Z,11.02
2023-05-22T13:39:54.062Z,11.95
2023-05-22T13:42:20.771Z,13.15
2023-05-22T13:44:47.271Z,14.30
2023-05-22T13:47:13.982Z,14.40
2023-05-22T13:49:43.827Z,13.25
2023-05-22T13:52:10.458Z,11.73
2023-05-22T13:54:37.058Z,13.18
2023-05-22T13:57:03.721Z,11.13
2023-05-22T13:59:30.330Z,12.73
2023-05-22T14:01:56.951Z,11.80
2023-05-22T14:04:23.762Z,11.00
2023-05-22T14:06:50.707Z,10.60
2023-05-22T14:09:17.868Z,10.25
2023-05-22T14:11:44.569Z,10.60
2023-05-22T14:14:11.420Z,10.15
2023-05-22T14:16:38.366Z,9.88
2023-05-22T14:19:05.090Z,9.77
2023-05-22T14:21:31.649Z,9.70
2023-05-22T14:23:58.226Z,8.80
2023-05-22T14:26:24.792Z,8.57
2023-05-22T14:28:51.448Z,8.57
2023-05-22T14:31:17.968Z,8.70
2023-05-22T14:33:44.474Z,8.70
2023-05-22T14:36:11.027Z,8.03
2023-05-22T14:38:37.950Z,7.85
2023-05-22T14:41:04.500Z,7.13
2023-05-22T14:43:31.218Z,7.53
2023-05-22T14:45:59.081Z,7.60
2023-05-22T14:48:26.467Z,7.00
2023-05-22T14:50:53.784Z,7.65
2023-05-22T14:53:20.808Z,7.22
2023-05-22T14:55:47.596Z,7.13
2023-05-22T14:58:14.695Z,7.65
2023-05-22T15:00:42.740Z,6.63
2023-05-22T15:03:09.414Z,7.55
2023-05-22T15:05:36.060Z,7.50
2023-05-22T15:08:02.678Z,7.47
2023-05-22T15:10:29.222Z,8.63
2023-05-22T15:12:55.776Z,8.23
2023-05-22T15:15:22.464Z,7.75
2023-05-22T15:17:49.133Z,7.10
2023-05-22T15:20:15.785Z,7.55
2023-05-22T15:22:42.344Z,6.35
2023-05-22T15:25:15.282Z,6.20
2023-05-22T15:27:42.734Z,5.75
2023-05-22T15:30:10.006Z,5.40
2023-05-22T15:32:37.606Z,5.70
2023-05-22T15:37:33.723Z,5.80
2023-05-22T15:40:01.828Z,4.80
2023-05-22T15:42:28.822Z,5.57
2023-05-22T15:44:55.528Z,4.63
2023-05-22T15:47:22.251Z,4.88
2023-05-22T15:49:48.783Z,4.90
2023-05-22T15:52:15.641Z,5.35
2023-05-22T15:54:42.230Z,4.95
2023-05-22T15:57:08.740Z,4.75
2023-05-22T15:59:35.262Z,4.63
2023-05-22T16:02:01.869Z,4.50
2023-05-22T16:04:28.407Z,4.60
2023-05-22T16:06:55.005Z,4.50
2023-05-22T16:09:21.546Z,4.00
2023-05-22T16:11:48.130Z,4.35
2023-05-22T16:14:14.678Z,3.90
2023-05-22T16:16:41.343Z,4.03
2023-05-22T16:19:08.079Z,4.07
2023-05-22T16:21:34.616Z,3.70
2023-05-22T16:24:01.216Z,3.47
2023-05-22T16:26:27.740Z,3.23
2023-05-22T16:28:54.320Z,3.65
2023-05-22T16:31:20.910Z,3.25
2023-05-22T16:33:47.548Z,3.35
2023-05-22T16:36:14.108Z,3.38
2023-05-22T16:38:40.638Z,3.07
2023-05-22T16:41:07.136Z,3.20
2023-05-22T16:43:33.651Z,3.50
2023-05-22T16:46:00.188Z,3.05
2023-05-22T16:48:26.828Z,2.90
2023-05-22T16:50:53.544Z,2.50
2023-05-22T16:53:20.092Z,2.90
2023-05-22T16:55:46.691Z,3.22
2023-05-22T16:58:14.008Z,3.00
2023-05-22T17:00:41.284Z,3.67
2023-05-22T17:03:08.497Z,3.63
2023-05-22T17:05:36.532Z,3.30
2023-05-22T17:08:03.320Z,4.10
2023-05-22T17:10:29.875Z,3.80
2023-05-22T17:12:56.577Z,3.70
2023-05-22T17:15:23.498Z,3.83
2023-05-22T17:17:50.687Z,3.80
2023-05-22T17:20:17.413Z,4.25
2023-05-22T17:22:43.978Z,4.13
2023-05-22T17:25:10.835Z,4.90
2023-05-22T17:27:37.327Z,4.80
2023-05-22T17:30:05.582Z,4.70
2023-05-22T17:32:32.375Z,5.18
2023-05-22T17:34:59.348Z,4.70
2023-05-22T17:37:25.888Z,5.07
2023-05-22T17:39:52.370Z,5.07
2023-05-22T17:42:18.962Z,5.28
2023-05-22T17:44:45.795Z,5.10
2023-05-22T17:47:13.406Z,4.85
2023-05-22T17:49:40.173Z,5.95
2023-05-22T17:52:08.571Z,5.93
2023-05-22T17:54:35.901Z,4.70
2023-05-22T17:57:04.102Z,5.28
2023-05-22T17:59:31.924Z,6.18
2023-05-22T18:01:58.550Z,5.78
2023-05-22T18:04:25.286Z,6.10
2023-05-22T18:06:52.209Z,6.40
2023-05-22T18:09:18.790Z,5.75
2023-05-22T18:11:45.346Z,5.60
2023-05-22T18:14:12.040Z,5.88
2023-05-22T18:16:38.646Z,6.30
2023-05-22T18:19:05.236Z,5.75
2023-05-22T18:21:32.254Z,6.53
2023-05-22T18:23:59.028Z,5.22
2023-05-22T18:26:26.754Z,5.07
2023-05-22T18:28:53.334Z,6.10
2023-05-22T18:31:20.128Z,7.10
2023-05-22T18:33:46.800Z,6.20
2023-05-22T18:36:13.351Z,5.78
2023-05-22T18:38:39.995Z,5.93
2023-05-22T18:41:06.764Z,6.27
2023-05-22T18:43:33.754Z,6.78
2023-05-22T18:46:00.317Z,6.13
2023-05-22T18:48:28.154Z,7.30
2023-05-22T18:50:57.292Z,6.65
2023-05-22T18:53:25.355Z,6.60
2023-05-22T18:55:53.725Z,7.68
2023-05-22T18:58:20.576Z,7.60
2023-05-22T19:00:47.232Z,7.63
2023-05-22T19:03:13.982Z,7.15
2023-05-22T19:05:40.728Z,7.27
2023-05-22T19:08:07.314Z,7.03
2023-05-22T19:10:34.032Z,7.07
2023-05-22T19:13:00.582Z,7.82
2023-05-22T19:15:27.173Z,7.13
2023-05-22T19:17:53.693Z,7.23
2023-05-22T19:20:20.475Z,6.82
2023-05-22T19:22:47.077Z,7.35
2023-05-22T19:25:13.723Z,7.05
2023-05-22T19:27:40.401Z,7.60
2023-05-22T19:30:07.431Z,6.90
2023-05-22T19:32:34.102Z,7.35
2023-05-22T19:35:00.621Z,8.30
2023-05-22T19:37:27.180Z,7.63
2023-05-22T19:39:54.292Z,8.60
2023-05-22T19:42:20.836Z,9.03
2023-05-22T19:44:47.419Z,8.93
2023-05-22T19:47:13.983Z,9.32
2023-05-22T19:49:40.505Z,9.25
2023-05-22T19:52:07.065Z,9.68
2023-05-22T19:54:35.763Z,9.63
2023-05-22T19:57:02.974Z,9.02
2023-05-22T19:59:29.511Z,8.90
2023-05-22T20:01:56.187Z,8.95
2023-05-22T20:04:23.198Z,9.00
2023-05-22T20:06:49.785Z,8.70
2023-05-22T20:09:16.740Z,8.57
2023-05-22T20:11:43.297Z,9.23
2023-05-22T20:14:09.864Z,9.10
2023-05-22T20:16:36.512Z,10.05
2023-05-22T20:19:04.103Z,9.40
2023-05-22T20:21:31.054Z,10.02
2023-05-22T20:23:57.766Z,9.52
2023-05-22T20:26:24.323Z,9.27
2023-05-22T20:28:50.928Z,9.52
2023-05-22T20:31:17.872Z,9.70
2023-05-22T20:33:44.460Z,8.75
2023-05-22T20:36:12.012Z,9.05
2023-05-22T20:38:38.518Z,9.15
2023-05-22T20:41:08.663Z,9.45
2023-05-22T20:43:36.230Z,8.90
2023-05-22T20:46:03.115Z,8.88
2023-05-22T20:48:29.717Z,8.60
2023-05-22T20:50:56.463Z,11.27
2023-05-22T20:53:24.458Z,11.95
2023-05-22T20:55:53.180Z,11.00
2023-05-22T20:58:19.982Z,10.63
2023-05-22T21:00:49.333Z,11.38
2023-05-22T21:03:16.980Z,10.57
2023-05-22T21:05:43.495Z,10.88
2023-05-22T21:08:10.054Z,11.90
2023-05-22T21:10:36.545Z,12.07
2023-05-22T21:13:03.075Z,10.00
2023-05-22T21:15:29.542Z,11.05
2023-05-22T21:17:56.097Z,8.05
2023-05-22T21:20:22.651Z,7.83
2023-05-22T21:22:49.210Z,7.45
2023-05-22T21:25:15.787Z,6.55
2023-05-22T21:27:42.357Z,6.90
2023-05-22T21:30:11.970Z,6.93
2023-05-22T21:32:38.680Z,6.40
2023-05-22T21:35:06.011Z,6.88
2023-05-22T21:37:32.559Z,6.15
2023-05-22T21:39:59.087Z,6.07
2023-05-22T21:42:26.209Z,5.50
2023-05-22T21:44:52.901Z,6.77
2023-05-22T21:47:19.518Z,6.03
2023-05-22T21:49:46.031Z,6.93
2023-05-22T21:52:12.811Z,6.57
2023-05-22T21:54:39.601Z,6.38
2023-05-22T21:57:06.369Z,6.10
2023-05-22T21:59:32.940Z,6.93
2023-05-22T22:01:59.573Z,7.07
2023-05-22T22:04:26.240Z,7.15
2023-05-22T22:06:54.033Z,7.88
2023-05-22T22:09:20.527Z,7.70
2023-05-22T22:11:48.620Z,6.60
2023-05-22T22:14:15.188Z,6.78
2023-05-22T22:16:44.398Z,7.03
2023-05-22T22:19:11.522Z,7.00
2023-05-22T22:21:38.402Z,6.90
2023-05-22T22:24:05.069Z,8.07
2023-05-22T22:26:32.316Z,7.43
2023-05-22T22:28:58.947Z,7.82
2023-05-22T22:31:26.282Z,7.70
2023-05-22T22:33:52.945Z,8.07
2023-05-22T22:36:19.452Z,7.53
2023-05-22T22:38:46.120Z,6.63
2023-05-22T22:41:12.666Z,7.78
2023-05-22T22:43:39.163Z,7.75
2023-05-22T22:46:05.844Z,8.10
2023-05-22T22:48:32.369Z,7.28
2023-05-22T22:50:58.902Z,7.15
2023-05-22T22:53:25.519Z,7.10
2023-05-22T22:55:59.277Z,7.43
2023-05-22T22:58:25.925Z,8.20
2023-05-22T23:00:52.889Z,8.02
2023-05-22T23:03:19.488Z,7.97
2023-05-22T23:05:46.543Z,7.78
2023-05-22T23:08:13.254Z,8.85
2023-05-22T23:10:39.759Z,8.53
2023-05-22T23:13:06.515Z,8.75
2023-05-22T23:15:33.825Z,8.07
2023-05-22T23:18:00.452Z,9.18
2023-05-22T23:20:26.970Z,8.20
2023-05-22T23:22:53.533Z,9.03
2023-05-22T23:25:20.123Z,8.38
2023-05-22T23:27:46.668Z,9.25
2023-05-22T23:30:13.245Z,8.40
2023-05-22T23:32:39.838Z,9.10
2023-05-22T23:35:06.566Z,8.73
2023-05-22T23:37:33.065Z,9.52
2023-05-22T23:39:59.574Z,8.85
2023-05-22T23:42:26.119Z,9.82
2023-05-22T23:44:52.743Z,9.25
2023-05-22T23:47:19.244Z,9.77
2023-05-22T23:49:45.716Z,9.57
2023-05-22T23:52:13.112Z,9.40
2023-05-22T23:54:39.731Z,9.90
2023-05-22T23:57:06.267Z,10.88
2023-05-22T23:59:32.765Z,10.43
